Portada
METAR-TAF:

METAR-TAF

Aeropuertos :

Aeropuerto Internacional de Yap

Yap, Micronesia

latitud: 09-29N, longitud: 138-05E, altitud: 28 m

Observación

El informe se hizo hace 20 minutos, a las 13:51 UTC
Viento 3 kt con dirección variable
Temperatura 28°C
Humedad 89%
Presión 1012 hPa
Visibilidad: 19.3 km
Escasas nubes a una altura de 1600 ft
Nubes dispersas a una altura de 13000 ft
Cielo nuboso a una altura de 30000 ft

METAR: PTYA 241351Z VRB03KT 12SM FEW016 SCT130 BKN300 28/26 A2987 RMK SLP115 T02830255

Hora: 00:11 (14:11 UTC)

Pronóstico

El informe se hizo hace 2 horas y 51 minutos, a las 11:20 UTC
Pronóstico válido del 24 a las 12 UTC al 25 a las 12 UTC
Viento 10 kt del este
Visibilidad: 10 km
Nubes dispersas a una altura de 1800 ft

TAF: PTYA 241120Z 2412/2512 08010KT P6SM SCT018

Observaciones y pronósticos meteorológicos de más de 4000 aeropuertos (mensajes METAR y TAF).

Los puntos amarillos y rojos representan las estaciones disponibles.

Ponga el ratón en el punto deseado para ver el nombre de la estación.

Haga clic para ver las observaciones y los pronósticos meteorológicos.

Para cambiar el mapa : haga clic en los botones verdes con una cruz de color negro para hacer un zoom, en el botón verde con un guión para alejar o en las flechas verdes para mapas adyacentes.


METAR-TAF: